sensor_id;sensor_type;location;lat;lon;timestamp;pressure;altitude;pressure_sealevel;temperature;humidity
51530;BME280;37613;51.788;21.582;2022-11-23T00:02:35;99401.72;;;-0.14;100.00
51530;BME280;37613;51.788;21.582;2022-11-23T00:06:38;99400.46;;;-0.14;100.00
51530;BME280;37613;51.788;21.582;2022-11-23T00:10:41;99394.94;;;-0.14;100.00
51530;BME280;37613;51.788;21.582;2022-11-23T00:14:42;99392.15;;;-0.14;100.00
51530;BME280;37613;51.788;21.582;2022-11-23T00:18:46;99394.27;;;-0.14;100.00
51530;BME280;37613;51.788;21.582;2022-11-23T00:22:48;99401.03;;;-0.13;100.00
51530;BME280;37613;51.788;21.582;2022-11-23T00:27:07;99408.36;;;-0.12;100.00
51530;BME280;37613;51.788;21.582;2022-11-23T00:31:14;99413.88;;;-0.12;100.00
51530;BME280;37613;51.788;21.582;2022-11-23T00:35:16;99408.30;;;-0.14;100.00
51530;BME280;37613;51.788;21.582;2022-11-23T00:39:18;99408.34;;;-0.15;100.00
51530;BME280;37613;51.788;21.582;2022-11-23T00:43:23;99408.22;;;-0.15;100.00
51530;BME280;37613;51.788;21.582;2022-11-23T00:47:25;99406.09;;;-0.16;100.00
51530;BME280;37613;51.788;21.582;2022-11-23T00:51:30;99401.22;;;-0.16;100.00
51530;BME280;37613;51.788;21.582;2022-11-23T00:55:32;99398.38;;;-0.16;100.00
51530;BME280;37613;51.788;21.582;2022-11-23T00:59:34;99400.14;;;-0.15;100.00
51530;BME280;37613;51.788;21.582;2022-11-23T01:03:38;99400.40;;;-0.16;100.00
51530;BME280;37613;51.788;21.582;2022-11-23T01:07:40;99394.48;;;-0.16;100.00
51530;BME280;37613;51.788;21.582;2022-11-23T01:11:43;99399.34;;;-0.17;100.00
51530;BME280;37613;51.788;21.582;2022-11-23T01:15:49;99403.10;;;-0.19;100.00
51530;BME280;37613;51.788;21.582;2022-11-23T01:19:52;99403.90;;;-0.21;100.00
51530;BME280;37613;51.788;21.582;2022-11-23T01:23:54;99398.77;;;-0.21;100.00
51530;BME280;37613;51.788;21.582;2022-11-23T01:28:01;99398.50;;;-0.20;100.00
51530;BME280;37613;51.788;21.582;2022-11-23T01:32:10;99398.11;;;-0.20;100.00
51530;BME280;37613;51.788;21.582;2022-11-23T01:36:16;99397.77;;;-0.21;100.00
51530;BME280;37613;51.788;21.582;2022-11-23T01:40:21;99396.15;;;-0.20;100.00
51530;BME280;37613;51.788;21.582;2022-11-23T01:44:31;99395.91;;;-0.21;100.00
51530;BME280;37613;51.788;21.582;2022-11-23T01:48:41;99391.41;;;-0.23;100.00
51530;BME280;37613;51.788;21.582;2022-11-23T01:52:43;99384.36;;;-0.24;100.00
51530;BME280;37613;51.788;21.582;2022-11-23T01:56:50;99381.50;;;-0.27;100.00
51530;BME280;37613;51.788;21.582;2022-11-23T02:00:55;99381.23;;;-0.29;100.00
51530;BME280;37613;51.788;21.582;2022-11-23T02:04:59;99378.77;;;-0.31;100.00
51530;BME280;37613;51.788;21.582;2022-11-23T02:09:02;99373.15;;;-0.31;100.00
51530;BME280;37613;51.788;21.582;2022-11-23T02:13:09;99359.69;;;-0.35;100.00
51530;BME280;37613;51.788;21.582;2022-11-23T02:17:12;99362.55;;;-0.30;100.00
51530;BME280;37613;51.788;21.582;2022-11-23T02:21:17;99368.39;;;-0.30;100.00
51530;BME280;37613;51.788;21.582;2022-11-23T02:26:01;99366.54;;;-0.29;100.00
51530;BME280;37613;51.788;21.582;2022-11-23T02:30:04;99361.91;;;-0.28;100.00
51530;BME280;37613;51.788;21.582;2022-11-23T02:34:07;99359.77;;;-0.26;100.00
51530;BME280;37613;51.788;21.582;2022-11-23T02:38:09;99368.56;;;-0.26;100.00
51530;BME280;37613;51.788;21.582;2022-11-23T02:42:11;99370.59;;;-0.29;100.00
51530;BME280;37613;51.788;21.582;2022-11-23T02:46:13;99374.75;;;-0.32;100.00
51530;BME280;37613;51.788;21.582;2022-11-23T02:50:16;99373.11;;;-0.35;100.00
51530;BME280;37613;51.788;21.582;2022-11-23T02:54:18;99371.52;;;-0.37;100.00
51530;BME280;37613;51.788;21.582;2022-11-23T02:58:20;99373.48;;;-0.38;100.00
51530;BME280;37613;51.788;21.582;2022-11-23T03:02:25;99381.11;;;-0.40;100.00
51530;BME280;37613;51.788;21.582;2022-11-23T03:06:28;99378.08;;;-0.43;100.00
51530;BME280;37613;51.788;21.582;2022-11-23T03:10:33;99374.48;;;-0.46;100.00
51530;BME280;37613;51.788;21.582;2022-11-23T03:14:35;99377.52;;;-0.48;100.00
51530;BME280;37613;51.788;21.582;2022-11-23T03:18:39;99374.65;;;-0.51;100.00
51530;BME280;37613;51.788;21.582;2022-11-23T03:22:43;99373.76;;;-0.52;100.00
51530;BME280;37613;51.788;21.582;2022-11-23T03:26:45;99382.08;;;-0.54;100.00
51530;BME280;37613;51.788;21.582;2022-11-23T03:30:47;99385.93;;;-0.58;100.00
51530;BME280;37613;51.788;21.582;2022-11-23T03:34:49;99381.27;;;-0.63;100.00
51530;BME280;37613;51.788;21.582;2022-11-23T03:38:51;99384.98;;;-0.63;100.00
51530;BME280;37613;51.788;21.582;2022-11-23T03:42:53;99390.98;;;-0.60;100.00
51530;BME280;37613;51.788;21.582;2022-11-23T03:46:55;99388.02;;;-0.61;100.00
51530;BME280;37613;51.788;21.582;2022-11-23T03:50:57;99392.37;;;-0.63;100.00
51530;BME280;37613;51.788;21.582;2022-11-23T03:54:59;99394.45;;;-0.66;100.00
51530;BME280;37613;51.788;21.582;2022-11-23T03:59:01;99394.39;;;-0.68;100.00
51530;BME280;37613;51.788;21.582;2022-11-23T04:03:03;99394.08;;;-0.70;100.00
51530;BME280;37613;51.788;21.582;2022-11-23T04:07:05;99399.64;;;-0.70;100.00
51530;BME280;37613;51.788;21.582;2022-11-23T04:11:07;99396.75;;;-0.71;100.00
51530;BME280;37613;51.788;21.582;2022-11-23T04:15:10;99397.02;;;-0.72;100.00
51530;BME280;37613;51.788;21.582;2022-11-23T04:19:12;99392.84;;;-0.72;100.00
51530;BME280;37613;51.788;21.582;2022-11-23T04:23:14;99395.08;;;-0.73;100.00
51530;BME280;37613;51.788;21.582;2022-11-23T04:27:16;99384.96;;;-0.73;100.00
51530;BME280;37613;51.788;21.582;2022-11-23T04:31:18;99384.79;;;-0.74;100.00
51530;BME280;37613;51.788;21.582;2022-11-23T04:35:20;99384.95;;;-0.74;100.00
51530;BME280;37613;51.788;21.582;2022-11-23T04:39:23;99382.00;;;-0.74;100.00
51530;BME280;37613;51.788;21.582;2022-11-23T04:43:25;99382.40;;;-0.73;100.00
51530;BME280;37613;51.788;21.582;2022-11-23T04:47:27;99380.94;;;-0.73;100.00
51530;BME280;37613;51.788;21.582;2022-11-23T04:51:29;99385.19;;;-0.74;100.00
51530;BME280;37613;51.788;21.582;2022-11-23T04:55:31;99387.14;;;-0.76;100.00
51530;BME280;37613;51.788;21.582;2022-11-23T04:59:33;99387.60;;;-0.78;100.00
51530;BME280;37613;51.788;21.582;2022-11-23T05:03:34;99387.34;;;-0.82;100.00
51530;BME280;37613;51.788;21.582;2022-11-23T05:07:37;99391.93;;;-0.86;100.00
51530;BME280;37613;51.788;21.582;2022-11-23T05:11:39;99394.40;;;-0.89;100.00
51530;BME280;37613;51.788;21.582;2022-11-23T05:15:41;99393.30;;;-0.90;100.00
51530;BME280;37613;51.788;21.582;2022-11-23T05:19:43;99390.03;;;-0.90;100.00
51530;BME280;37613;51.788;21.582;2022-11-23T05:23:46;99394.06;;;-0.90;100.00
51530;BME280;37613;51.788;21.582;2022-11-23T05:27:48;99394.46;;;-0.90;100.00
51530;BME280;37613;51.788;21.582;2022-11-23T05:31:53;99401.84;;;-0.89;100.00
51530;BME280;37613;51.788;21.582;2022-11-23T05:35:55;99396.05;;;-0.93;100.00
51530;BME280;37613;51.788;21.582;2022-11-23T05:39:57;99392.69;;;-0.96;100.00
51530;BME280;37613;51.788;21.582;2022-11-23T05:43:59;99391.19;;;-1.00;100.00
51530;BME280;37613;51.788;21.582;2022-11-23T05:48:01;99381.21;;;-1.03;100.00
51530;BME280;37613;51.788;21.582;2022-11-23T05:52:06;99386.33;;;-1.06;100.00
51530;BME280;37613;51.788;21.582;2022-11-23T05:56:08;99389.64;;;-1.07;100.00
51530;BME280;37613;51.788;21.582;2022-11-23T06:00:13;99393.39;;;-1.10;100.00
51530;BME280;37613;51.788;21.582;2022-11-23T06:04:16;99403.04;;;-1.12;100.00
51530;BME280;37613;51.788;21.582;2022-11-23T06:08:18;99406.92;;;-1.14;100.00
51530;BME280;37613;51.788;21.582;2022-11-23T06:12:20;99415.20;;;-1.17;100.00
51530;BME280;37613;51.788;21.582;2022-11-23T06:16:22;99415.84;;;-1.21;100.00
51530;BME280;37613;51.788;21.582;2022-11-23T06:20:25;99411.96;;;-1.24;100.00
51530;BME280;37613;51.788;21.582;2022-11-23T06:24:27;99406.98;;;-1.26;100.00
51530;BME280;37613;51.788;21.582;2022-11-23T06:28:29;99410.33;;;-1.28;100.00
51530;BME280;37613;51.788;21.582;2022-11-23T06:32:31;99413.41;;;-1.29;100.00
51530;BME280;37613;51.788;21.582;2022-11-23T06:36:33;99417.23;;;-1.28;100.00
51530;BME280;37613;51.788;21.582;2022-11-23T06:40:36;99420.92;;;-1.26;100.00
51530;BME280;37613;51.788;21.582;2022-11-23T06:44:38;99429.07;;;-1.26;100.00
51530;BME280;37613;51.788;21.582;2022-11-23T06:48:42;99433.17;;;-1.24;100.00
51530;BME280;37613;51.788;21.582;2022-11-23T06:52:45;99430.66;;;-1.23;100.00
51530;BME280;37613;51.788;21.582;2022-11-23T06:56:47;99433.78;;;-1.20;100.00
51530;BME280;37613;51.788;21.582;2022-11-23T07:00:49;99442.57;;;-1.17;100.00
51530;BME280;37613;51.788;21.582;2022-11-23T07:04:51;99449.58;;;-1.15;100.00
51530;BME280;37613;51.788;21.582;2022-11-23T07:08:54;99450.52;;;-1.11;100.00
51530;BME280;37613;51.788;21.582;2022-11-23T07:13:02;99448.01;;;-1.10;100.00
51530;BME280;37613;51.788;21.582;2022-11-23T07:17:05;99442.46;;;-1.11;100.00
51530;BME280;37613;51.788;21.582;2022-11-23T07:21:07;99442.35;;;-1.12;100.00
51530;BME280;37613;51.788;21.582;2022-11-23T07:25:09;99442.83;;;-1.14;100.00
51530;BME280;37613;51.788;21.582;2022-11-23T07:29:15;99442.57;;;-1.16;100.00
51530;BME280;37613;51.788;21.582;2022-11-23T07:33:17;99445.14;;;-1.15;100.00
51530;BME280;37613;51.788;21.582;2022-11-23T07:37:19;99451.45;;;-1.16;100.00
51530;BME280;37613;51.788;21.582;2022-11-23T07:41:22;99456.63;;;-1.19;100.00
51530;BME280;37613;51.788;21.582;2022-11-23T07:45:24;99463.35;;;-1.19;100.00
51530;BME280;37613;51.788;21.582;2022-11-23T07:49:26;99464.52;;;-1.18;100.00
51530;BME280;37613;51.788;21.582;2022-11-23T07:53:28;99469.48;;;-1.16;100.00
51530;BME280;37613;51.788;21.582;2022-11-23T07:57:33;99469.35;;;-1.15;100.00
51530;BME280;37613;51.788;21.582;2022-11-23T08:01:35;99466.63;;;-1.12;100.00
51530;BME280;37613;51.788;21.582;2022-11-23T08:05:37;99471.22;;;-1.09;100.00
51530;BME280;37613;51.788;21.582;2022-11-23T08:09:44;99469.43;;;-1.08;100.00
51530;BME280;37613;51.788;21.582;2022-11-23T08:13:47;99467.64;;;-1.05;100.00
51530;BME280;37613;51.788;21.582;2022-11-23T08:17:56;99465.41;;;-1.03;100.00
51530;BME280;37613;51.788;21.582;2022-11-23T08:21:58;99457.02;;;-1.01;100.00
51530;BME280;37613;51.788;21.582;2022-11-23T08:26:02;99453.28;;;-0.99;100.00
51530;BME280;37613;51.788;21.582;2022-11-23T08:30:05;99458.30;;;-0.95;100.00
51530;BME280;37613;51.788;21.582;2022-11-23T08:34:08;99453.30;;;-0.89;100.00
51530;BME280;37613;51.788;21.582;2022-11-23T08:38:10;99457.63;;;-0.85;100.00
51530;BME280;37613;51.788;21.582;2022-11-23T08:42:13;99461.81;;;-0.83;100.00
51530;BME280;37613;51.788;21.582;2022-11-23T08:46:15;99465.45;;;-0.83;100.00
51530;BME280;37613;51.788;21.582;2022-11-23T08:50:18;99470.50;;;-0.83;100.00
51530;BME280;37613;51.788;21.582;2022-11-23T08:54:21;99472.02;;;-0.79;100.00
51530;BME280;37613;51.788;21.582;2022-11-23T08:58:24;99465.09;;;-0.71;100.00
51530;BME280;37613;51.788;21.582;2022-11-23T09:02:26;99460.88;;;-0.64;100.00
51530;BME280;37613;51.788;21.582;2022-11-23T09:06:32;99457.52;;;-0.60;100.00
51530;BME280;37613;51.788;21.582;2022-11-23T09:10:35;99457.52;;;-0.60;100.00
51530;BME280;37613;51.788;21.582;2022-11-23T09:14:37;99451.39;;;-0.60;100.00
51530;BME280;37613;51.788;21.582;2022-11-23T09:18:39;99449.10;;;-0.63;100.00
51530;BME280;37613;51.788;21.582;2022-11-23T09:22:41;99442.40;;;-0.64;100.00
51530;BME280;37613;51.788;21.582;2022-11-23T09:26:43;99442.70;;;-0.64;100.00
51530;BME280;37613;51.788;21.582;2022-11-23T09:30:45;99450.76;;;-0.65;100.00
51530;BME280;37613;51.788;21.582;2022-11-23T09:34:48;99453.55;;;-0.64;100.00
51530;BME280;37613;51.788;21.582;2022-11-23T09:38:51;99453.64;;;-0.62;100.00
51530;BME280;37613;51.788;21.582;2022-11-23T09:47:46;99454.85;;;-0.54;100.00
51530;BME280;37613;51.788;21.582;2022-11-23T09:51:49;99450.70;;;-0.52;100.00
51530;BME280;37613;51.788;21.582;2022-11-23T09:55:56;99446.75;;;-0.49;100.00
51530;BME280;37613;51.788;21.582;2022-11-23T10:00:18;99449.78;;;-0.49;100.00
51530;BME280;37613;51.788;21.582;2022-11-23T10:04:22;99444.20;;;-0.48;100.00
51530;BME280;37613;51.788;21.582;2022-11-23T10:08:40;99438.15;;;-0.46;100.00
51530;BME280;37613;51.788;21.582;2022-11-23T10:13:09;99434.35;;;-0.46;100.00
51530;BME280;37613;51.788;21.582;2022-11-23T10:25:59;99414.96;;;-0.35;100.00
51530;BME280;37613;51.788;21.582;2022-11-23T10:30:05;99406.72;;;-0.31;100.00
51530;BME280;37613;51.788;21.582;2022-11-23T10:34:22;99400.02;;;-0.29;100.00
51530;BME280;37613;51.788;21.582;2022-11-23T10:38:28;99395.69;;;-0.28;100.00
51530;BME280;37613;51.788;21.582;2022-11-23T10:42:35;99385.24;;;-0.32;100.00
51530;BME280;37613;51.788;21.582;2022-11-23T10:46:39;99391.31;;;-0.31;100.00
51530;BME280;37613;51.788;21.582;2022-11-23T10:50:41;99395.25;;;-0.27;100.00
51530;BME280;37613;51.788;21.582;2022-11-23T10:54:52;99395.13;;;-0.26;100.00
51530;BME280;37613;51.788;21.582;2022-11-23T10:58:55;99393.76;;;-0.28;100.00
51530;BME280;37613;51.788;21.582;2022-11-23T11:02:58;99396.13;;;-0.30;100.00
51530;BME280;37613;51.788;21.582;2022-11-23T11:07:22;99400.96;;;-0.31;100.00
51530;BME280;37613;51.788;21.582;2022-11-23T11:11:37;99412.19;;;-0.30;100.00
51530;BME280;37613;51.788;21.582;2022-11-23T11:15:50;99410.23;;;-0.33;100.00
51530;BME280;37613;51.788;21.582;2022-11-23T11:19:53;99409.79;;;-0.37;100.00
51530;BME280;37613;51.788;21.582;2022-11-23T11:24:01;99410.11;;;-0.42;100.00
51530;BME280;37613;51.788;21.582;2022-11-23T11:28:18;99408.34;;;-0.46;100.00
51530;BME280;37613;51.788;21.582;2022-11-23T11:36:27;99397.72;;;-0.50;100.00
51530;BME280;37613;51.788;21.582;2022-11-23T11:40:40;99392.70;;;-0.50;100.00
51530;BME280;37613;51.788;21.582;2022-11-23T11:44:47;99396.05;;;-0.45;100.00
51530;BME280;37613;51.788;21.582;2022-11-23T11:48:54;99392.13;;;-0.43;100.00
51530;BME280;37613;51.788;21.582;2022-11-23T11:53:04;99388.29;;;-0.45;100.00
51530;BME280;37613;51.788;21.582;2022-11-23T11:57:20;99390.17;;;-0.46;100.00
51530;BME280;37613;51.788;21.582;2022-11-23T12:01:36;99393.41;;;-0.50;100.00
51530;BME280;37613;51.788;21.582;2022-11-23T12:05:50;99384.48;;;-0.52;100.00
51530;BME280;37613;51.788;21.582;2022-11-23T12:09:59;99373.84;;;-0.52;100.00
51530;BME280;37613;51.788;21.582;2022-11-23T12:14:07;99379.04;;;-0.54;100.00
51530;BME280;37613;51.788;21.582;2022-11-23T12:48:56;99365.14;;;-0.64;100.00
51530;BME280;37613;51.788;21.582;2022-11-23T12:53:15;99365.31;;;-0.67;100.00
51530;BME280;37613;51.788;21.582;2022-11-23T12:57:33;99366.70;;;-0.67;100.00
51530;BME280;37613;51.788;21.582;2022-11-23T13:01:43;99370.50;;;-0.67;100.00
51530;BME280;37613;51.788;21.582;2022-11-23T13:10:45;99378.38;;;-0.71;100.00
51530;BME280;37613;51.788;21.582;2022-11-23T13:23:37;99367.67;;;-0.76;100.00
51530;BME280;37613;51.788;21.582;2022-11-23T13:27:45;99369.96;;;-0.74;100.00
51530;BME280;37613;51.788;21.582;2022-11-23T13:36:39;99369.06;;;-0.76;100.00
51530;BME280;37613;51.788;21.582;2022-11-23T13:40:44;99370.63;;;-0.77;100.00
51530;BME280;37613;51.788;21.582;2022-11-23T13:44:46;99357.84;;;-0.82;100.00
51530;BME280;37613;51.788;21.582;2022-11-23T13:48:50;99362.73;;;-0.77;100.00
51530;BME280;37613;51.788;21.582;2022-11-23T13:52:55;99361.80;;;-0.72;100.00
51530;BME280;37613;51.788;21.582;2022-11-23T13:57:01;99364.42;;;-0.73;100.00
51530;BME280;37613;51.788;21.582;2022-11-23T14:01:06;99367.98;;;-0.75;100.00
51530;BME280;37613;51.788;21.582;2022-11-23T14:05:29;99370.35;;;-0.77;100.00
51530;BME280;37613;51.788;21.582;2022-11-23T14:09:52;99365.89;;;-0.80;100.00
51530;BME280;37613;51.788;21.582;2022-11-23T14:14:01;99367.10;;;-0.86;100.00
51530;BME280;37613;51.788;21.582;2022-11-23T14:35:28;99389.19;;;-1.07;100.00
51530;BME280;37613;51.788;21.582;2022-11-23T14:44:12;99382.66;;;-1.13;100.00
51530;BME280;37613;51.788;21.582;2022-11-23T14:48:22;99390.45;;;-1.10;100.00
51530;BME280;37613;51.788;21.582;2022-11-23T14:52:31;99384.59;;;-1.11;100.00
51530;BME280;37613;51.788;21.582;2022-11-23T14:56:46;99384.55;;;-1.13;100.00
51530;BME280;37613;51.788;21.582;2022-11-23T15:00:52;99384.02;;;-1.15;100.00
51530;BME280;37613;51.788;21.582;2022-11-23T15:13:47;99382.52;;;-1.20;100.00
51530;BME280;37613;51.788;21.582;2022-11-23T15:17:58;99389.17;;;-1.20;100.00
51530;BME280;37613;51.788;21.582;2022-11-23T15:22:00;99392.39;;;-1.22;100.00
51530;BME280;37613;51.788;21.582;2022-11-23T15:26:05;99405.08;;;-1.25;100.00
51530;BME280;37613;51.788;21.582;2022-11-23T15:30:19;99416.66;;;-1.26;100.00
51530;BME280;37613;51.788;21.582;2022-11-23T15:34:22;99416.08;;;-1.30;100.00
51530;BME280;37613;51.788;21.582;2022-11-23T15:38:24;99418.55;;;-1.32;100.00
51530;BME280;37613;51.788;21.582;2022-11-23T15:42:26;99412.50;;;-1.34;100.00
51530;BME280;37613;51.788;21.582;2022-11-23T15:46:35;99409.11;;;-1.36;100.00
51530;BME280;37613;51.788;21.582;2022-11-23T15:51:07;99411.07;;;-1.33;100.00
51530;BME280;37613;51.788;21.582;2022-11-23T15:55:12;99410.36;;;-1.36;100.00
51530;BME280;37613;51.788;21.582;2022-11-23T15:59:38;99405.95;;;-1.43;100.00
51530;BME280;37613;51.788;21.582;2022-11-23T16:03:58;99398.71;;;-1.46;100.00
51530;BME280;37613;51.788;21.582;2022-11-23T16:08:35;99400.67;;;-1.49;100.00
51530;BME280;37613;51.788;21.582;2022-11-23T16:12:49;99399.12;;;-1.52;100.00
51530;BME280;37613;51.788;21.582;2022-11-23T16:17:03;99390.98;;;-1.54;100.00
51530;BME280;37613;51.788;21.582;2022-11-23T16:21:06;99395.45;;;-1.55;100.00
51530;BME280;37613;51.788;21.582;2022-11-23T16:25:33;99399.36;;;-1.54;100.00
51530;BME280;37613;51.788;21.582;2022-11-23T16:29:36;99401.67;;;-1.52;100.00
51530;BME280;37613;51.788;21.582;2022-11-23T16:33:38;99401.61;;;-1.51;100.00
51530;BME280;37613;51.788;21.582;2022-11-23T16:37:40;99401.36;;;-1.56;100.00
51530;BME280;37613;51.788;21.582;2022-11-23T16:41:45;99402.45;;;-1.58;100.00
51530;BME280;37613;51.788;21.582;2022-11-23T16:45:50;99405.76;;;-1.63;100.00
51530;BME280;37613;51.788;21.582;2022-11-23T16:49:53;99415.45;;;-1.68;100.00
51530;BME280;37613;51.788;21.582;2022-11-23T16:53:56;99415.60;;;-1.72;100.00
51530;BME280;37613;51.788;21.582;2022-11-23T16:57:58;99420.50;;;-1.74;100.00
51530;BME280;37613;51.788;21.582;2022-11-23T17:02:00;99425.36;;;-1.74;100.00
51530;BME280;37613;51.788;21.582;2022-11-23T17:06:13;99426.77;;;-1.74;100.00
51530;BME280;37613;51.788;21.582;2022-11-23T17:10:18;99431.21;;;-1.73;100.00
51530;BME280;37613;51.788;21.582;2022-11-23T17:14:21;99433.67;;;-1.73;100.00
51530;BME280;37613;51.788;21.582;2022-11-23T17:18:27;99431.10;;;-1.74;100.00
51530;BME280;37613;51.788;21.582;2022-11-23T17:22:30;99430.80;;;-1.76;100.00
51530;BME280;37613;51.788;21.582;2022-11-23T17:26:37;99432.84;;;-1.78;100.00
51530;BME280;37613;51.788;21.582;2022-11-23T17:30:41;99431.09;;;-1.81;100.00
51530;BME280;37613;51.788;21.582;2022-11-23T17:34:46;99421.73;;;-1.82;100.00
51530;BME280;37613;51.788;21.582;2022-11-23T17:38:48;99413.68;;;-1.84;100.00
51530;BME280;37613;51.788;21.582;2022-11-23T17:42:52;99414.48;;;-1.84;100.00
51530;BME280;37613;51.788;21.582;2022-11-23T17:46:56;99411.61;;;-1.81;100.00
51530;BME280;37613;51.788;21.582;2022-11-23T17:50:59;99404.48;;;-1.80;100.00
51530;BME280;37613;51.788;21.582;2022-11-23T17:55:04;99406.89;;;-1.77;100.00
51530;BME280;37613;51.788;21.582;2022-11-23T17:59:07;99407.89;;;-1.80;100.00
51530;BME280;37613;51.788;21.582;2022-11-23T18:03:09;99410.80;;;-1.83;100.00
51530;BME280;37613;51.788;21.582;2022-11-23T18:07:13;99413.71;;;-1.84;100.00
51530;BME280;37613;51.788;21.582;2022-11-23T18:11:16;99413.27;;;-1.83;100.00
51530;BME280;37613;51.788;21.582;2022-11-23T18:15:19;99417.73;;;-1.81;100.00
51530;BME280;37613;51.788;21.582;2022-11-23T18:19:22;99419.18;;;-1.80;100.00
51530;BME280;37613;51.788;21.582;2022-11-23T18:23:26;99415.21;;;-1.77;100.00
51530;BME280;37613;51.788;21.582;2022-11-23T18:27:30;99413.10;;;-1.77;100.00
51530;BME280;37613;51.788;21.582;2022-11-23T18:31:33;99407.30;;;-1.77;100.00
51530;BME280;37613;51.788;21.582;2022-11-23T18:35:35;99404.86;;;-1.78;100.00
51530;BME280;37613;51.788;21.582;2022-11-23T18:39:38;99397.59;;;-1.80;100.00
51530;BME280;37613;51.788;21.582;2022-11-23T18:43:41;99400.58;;;-1.80;100.00
51530;BME280;37613;51.788;21.582;2022-11-23T18:47:44;99398.22;;;-1.79;100.00
51530;BME280;37613;51.788;21.582;2022-11-23T18:51:47;99401.96;;;-1.79;100.00
51530;BME280;37613;51.788;21.582;2022-11-23T18:55:49;99409.41;;;-1.80;100.00
51530;BME280;37613;51.788;21.582;2022-11-23T18:59:51;99409.33;;;-1.80;100.00
51530;BME280;37613;51.788;21.582;2022-11-23T19:03:54;99403.23;;;-1.80;100.00
51530;BME280;37613;51.788;21.582;2022-11-23T19:08:00;99405.21;;;-1.79;100.00
51530;BME280;37613;51.788;21.582;2022-11-23T19:12:06;99410.19;;;-1.78;100.00
51530;BME280;37613;51.788;21.582;2022-11-23T19:16:12;99407.74;;;-1.81;100.00
51530;BME280;37613;51.788;21.582;2022-11-23T19:20:16;99402.57;;;-1.83;100.00
51530;BME280;37613;51.788;21.582;2022-11-23T19:24:21;99402.14;;;-1.84;100.00
51530;BME280;37613;51.788;21.582;2022-11-23T19:28:24;99401.76;;;-1.86;100.00
51530;BME280;37613;51.788;21.582;2022-11-23T19:32:29;99398.22;;;-1.87;100.00
51530;BME280;37613;51.788;21.582;2022-11-23T19:36:33;99405.18;;;-1.88;100.00
51530;BME280;37613;51.788;21.582;2022-11-23T19:40:40;99407.43;;;-1.87;100.00
51530;BME280;37613;51.788;21.582;2022-11-23T19:44:45;99406.47;;;-1.89;100.00
51530;BME280;37613;51.788;21.582;2022-11-23T19:48:48;99404.02;;;-1.92;100.00
51530;BME280;37613;51.788;21.582;2022-11-23T19:52:51;99408.71;;;-1.98;100.00
51530;BME280;37613;51.788;21.582;2022-11-23T19:56:54;99416.36;;;-2.00;100.00
51530;BME280;37613;51.788;21.582;2022-11-23T20:01:04;99424.70;;;-2.01;100.00
51530;BME280;37613;51.788;21.582;2022-11-23T20:05:07;99424.50;;;-2.00;100.00
51530;BME280;37613;51.788;21.582;2022-11-23T20:09:14;99420.00;;;-2.00;100.00
51530;BME280;37613;51.788;21.582;2022-11-23T20:13:23;99427.24;;;-2.03;100.00
51530;BME280;37613;51.788;21.582;2022-11-23T20:17:29;99436.82;;;-2.04;100.00
51530;BME280;37613;51.788;21.582;2022-11-23T20:21:33;99438.89;;;-2.03;100.00
51530;BME280;37613;51.788;21.582;2022-11-23T20:25:36;99436.46;;;-2.01;100.00
51530;BME280;37613;51.788;21.582;2022-11-23T20:29:42;99442.99;;;-2.01;100.00
51530;BME280;37613;51.788;21.582;2022-11-23T20:33:48;99435.48;;;-2.09;100.00
51530;BME280;37613;51.788;21.582;2022-11-23T20:37:52;99446.41;;;-2.04;100.00
51530;BME280;37613;51.788;21.582;2022-11-23T20:41:57;99441.25;;;-2.02;100.00
51530;BME280;37613;51.788;21.582;2022-11-23T20:46:01;99430.64;;;-2.08;100.00
51530;BME280;37613;51.788;21.582;2022-11-23T20:50:04;99450.73;;;-2.05;100.00
51530;BME280;37613;51.788;21.582;2022-11-23T20:54:07;99445.70;;;-2.09;100.00
51530;BME280;37613;51.788;21.582;2022-11-23T20:58:19;99440.09;;;-2.11;100.00
51530;BME280;37613;51.788;21.582;2022-11-23T21:02:21;99436.54;;;-2.13;100.00
51530;BME280;37613;51.788;21.582;2022-11-23T21:06:24;99430.39;;;-2.14;100.00
51530;BME280;37613;51.788;21.582;2022-11-23T21:10:28;99435.31;;;-2.13;100.00
51530;BME280;37613;51.788;21.582;2022-11-23T21:14:49;99435.29;;;-2.13;100.00
51530;BME280;37613;51.788;21.582;2022-11-23T21:18:51;99429.89;;;-2.15;100.00
51530;BME280;37613;51.788;21.582;2022-11-23T21:22:53;99438.23;;;-2.15;100.00
51530;BME280;37613;51.788;21.582;2022-11-23T21:26:55;99437.77;;;-2.16;100.00
51530;BME280;37613;51.788;21.582;2022-11-23T21:31:07;99431.56;;;-2.18;100.00
51530;BME280;37613;51.788;21.582;2022-11-23T21:35:10;99431.40;;;-2.18;100.00
51530;BME280;37613;51.788;21.582;2022-11-23T21:39:13;99436.63;;;-2.19;100.00
51530;BME280;37613;51.788;21.582;2022-11-23T21:43:15;99438.43;;;-2.20;100.00
51530;BME280;37613;51.788;21.582;2022-11-23T21:47:17;99435.56;;;-2.20;100.00
51530;BME280;37613;51.788;21.582;2022-11-23T21:51:21;99430.02;;;-2.20;100.00
51530;BME280;37613;51.788;21.582;2022-11-23T21:55:24;99421.17;;;-2.20;100.00
51530;BME280;37613;51.788;21.582;2022-11-23T21:59:26;99423.18;;;-2.20;100.00
51530;BME280;37613;51.788;21.582;2022-11-23T22:03:28;99422.98;;;-2.19;100.00
51530;BME280;37613;51.788;21.582;2022-11-23T22:07:32;99422.12;;;-2.18;100.00
51530;BME280;37613;51.788;21.582;2022-11-23T22:11:36;99425.70;;;-2.15;100.00
51530;BME280;37613;51.788;21.582;2022-11-23T22:15:40;99426.55;;;-2.15;100.00
51530;BME280;37613;51.788;21.582;2022-11-23T22:19:42;99414.86;;;-2.17;100.00
51530;BME280;37613;51.788;21.582;2022-11-23T22:23:44;99411.40;;;-2.18;100.00
51530;BME280;37613;51.788;21.582;2022-11-23T22:27:53;99406.77;;;-2.20;100.00
51530;BME280;37613;51.788;21.582;2022-11-23T22:31:55;99406.33;;;-2.22;100.00
51530;BME280;37613;51.788;21.582;2022-11-23T22:36:08;99410.91;;;-2.21;100.00
51530;BME280;37613;51.788;21.582;2022-11-23T22:40:16;99412.77;;;-2.21;100.00
51530;BME280;37613;51.788;21.582;2022-11-23T22:44:18;99411.23;;;-2.21;100.00